Flugplatz Friedersdorf

Für EDCF sind keine METAR/TAF Berichte vorhanden.
Es werden die Flugwettermeldungen vom Flugplatz Berlin-Schönefeld International in 21 km Entfernung angezeigt.

Bericht für EDDB

vom 16.09. um 21:50 UTC

Wind 6 kt aus 270°

Sichtweite 10 km oder mehr

gute Sicht, keine Wolken < 5000 ft, keine CB, keine Wettererscheinungen (CAVOK)

Temperatur 11.0°C

Taupunkt 10.0°C

Luftfeuchtigkeit 94%

Luftdruck 1017 hPa

keine wesentliche Wetteränderung innerhalb den nächsten 2 Stunden zu erwarten

EDDB 162150Z 27006KT CAVOK 11/10 Q1017 NOSIG

Prognose für EDDB

vom 16.09. um 00:00 UTC

Am 16.09. zwischen 00:00 UTC und 00:00 UTC

Wind 7 kt aus 260°

Sichtweite 10 km oder mehr

aufgelockert bewölkt in 2000 ft


Zwischen 00:00 und 00:00 UTC übergehend zu

Wind 15 kt aus 270° in Böen 25 kt

Sichtweite 10 km oder mehr

aufgelockert bewölkt in 2000 ft


Zwischen 00:00 UTC und 00:00 UTC zeitweise

Wind 20 kt aus 280° in Böen 35 kt

Regenschauer

aufgelockert bewölkt in 2000 ft

TAF EDDB 161700Z 1618/1718 26007KT 9999 SCT020 BECMG 1706/1709 27015G25KT TEMPO 1709/1718 28020G35KT SHRA SCT020CB
Impressum